Time;durP1;ratioP1;P1;durP2;ratioP2;P2;SDS_P1;SDS_P2;PMS_P1;PMS_P2;Temp;Humidity;BMP_temperature;BMP_pressure;BME280_temperature;BME280_humidity;BME280_pressure;Samples;Min_cycle;Max_cycle;Signal;HPM_P1;HPM_P2
2023/05/02 00:00:02;;;;;;;1.80;1.70;;;;;;;;;;5013957;28;20293;-86
2023/05/02 00:02:31;;;;;;;1.70;1.60;;;;;;;;;;5013529;28;20269;-86
2023/05/02 00:04:59;;;;;;;1.70;1.60;;;;;;;;;;5013329;28;20326;-86
2023/05/02 00:07:26;;;;;;;1.90;1.80;;;;;;;;;;5013265;28;20281;-86
2023/05/02 00:09:54;;;;;;;2.00;1.90;;;;;;;;;;5013642;28;20301;-86
2023/05/02 00:12:22;;;;;;;2.33;2.13;;;;;;;;;;5013220;28;20199;-86
2023/05/02 00:14:49;;;;;;;2.28;2.10;;;;;;;;;;5013490;28;20688;-86
2023/05/02 00:17:20;;;;;;;2.03;1.83;;;;;;;;;;5013287;28;20656;-86
2023/05/02 00:19:49;;;;;;;2.25;2.08;;;;;;;;;;5013339;28;20262;-86
2023/05/02 00:22:16;;;;;;;1.95;1.85;;;;;;;;;;5013176;28;20329;-86
2023/05/02 00:24:44;;;;;;;1.60;1.50;;;;;;;;;;5013501;28;20273;-87
2023/05/02 00:27:11;;;;;;;1.67;1.58;;;;;;;;;;5012993;28;20289;-87
2023/05/02 00:29:39;;;;;;;1.90;1.80;;;;;;;;;;5013511;28;20297;-86
2023/05/02 00:32:07;;;;;;;1.63;1.52;;;;;;;;;;5013296;28;20200;-87
2023/05/02 00:34:34;;;;;;;2.85;2.47;;;;;;;;;;5012639;28;20310;-87
2023/05/02 00:37:03;;;;;;;1.98;1.88;;;;;;;;;;5012954;28;20203;-86
2023/05/02 00:39:31;;;;;;;3.47;2.50;;;;;;;;;;5013110;28;20222;-87
2023/05/02 00:41:59;;;;;;;2.50;2.30;;;;;;;;;;5013052;28;20241;-87
2023/05/02 00:44:26;;;;;;;2.85;2.65;;;;;;;;;;5012783;28;20656;-85
2023/05/02 00:46:54;;;;;;;1.90;1.80;;;;;;;;;;5012849;28;20282;-86
2023/05/02 00:49:21;;;;;;;2.65;2.45;;;;;;;;;;5012714;28;20235;-86
2023/05/02 00:51:49;;;;;;;3.28;1.92;;;;;;;;;;5012862;28;20195;-86
2023/05/02 00:54:18;;;;;;;2.58;2.38;;;;;;;;;;5013034;28;20290;-86
2023/05/02 00:56:46;;;;;;;3.03;2.83;;;;;;;;;;5012886;28;20294;-86
2023/05/02 00:59:14;;;;;;;3.47;3.17;;;;;;;;;;5013154;28;20214;-87
2023/05/02 01:01:53;;;;;;;7.80;4.20;;;;;;;;;;5016861;28;20233;-86
2023/05/02 01:04:30;;;;;;;3.10;2.80;;;;;;;;;;5016981;28;20652;-86
2023/05/02 01:07:11;;;;;;;4.18;3.63;;;;;;;;;;5016671;28;20633;-86
2023/05/02 01:09:53;;;;;;;3.85;3.53;;;;;;;;;;5017016;28;20233;-87
2023/05/02 01:12:31;;;;;;;3.17;2.90;;;;;;;;;;5017584;28;20191;-87
2023/05/02 01:14:59;;;;;;;4.13;3.83;;;;;;;;;;5016959;28;20313;-86
2023/05/02 01:17:31;;;;;;;4.50;4.20;;;;;;;;;;5016813;28;20236;-86
2023/05/02 01:20:02;;;;;;;4.97;4.47;;;;;;;;;;5016716;28;20286;-87
2023/05/02 01:22:30;;;;;;;5.68;4.20;;;;;;;;;;5016708;28;20198;-87
2023/05/02 01:25:07;;;;;;;4.07;3.78;;;;;;;;;;5016297;28;20305;-87
2023/05/02 01:27:47;;;;;;;5.03;4.68;;;;;;;;;;5016279;28;20222;-86
2023/05/02 01:30:18;;;;;;;4.55;3.88;;;;;;;;;;5016399;28;20186;-87
2023/05/02 01:32:47;;;;;;;4.28;3.88;;;;;;;;;;5016415;28;20274;-86
2023/05/02 01:35:16;;;;;;;4.75;4.25;;;;;;;;;;5016184;28;20675;-87
2023/05/02 01:37:46;;;;;;;4.22;3.92;;;;;;;;;;5016311;28;20674;-86
2023/05/02 01:40:15;;;;;;;5.15;4.75;;;;;;;;;;5016457;28;20293;-87
2023/05/02 01:42:44;;;;;;;3.90;3.60;;;;;;;;;;5016190;28;20213;-87
2023/05/02 01:45:15;;;;;;;3.70;3.50;;;;;;;;;;5016189;28;20223;-86
2023/05/02 01:47:44;;;;;;;4.38;3.70;;;;;;;;;;5016637;28;20290;-86
2023/05/02 01:50:15;;;;;;;4.90;4.50;;;;;;;;;;5016172;28;20199;-87
2023/05/02 01:52:43;;;;;;;4.63;4.30;;;;;;;;;;5015930;28;20237;-86
2023/05/02 01:55:15;;;;;;;5.00;4.53;;;;;;;;;;5016085;28;20632;-86
2023/05/02 01:57:46;;;;;;;5.72;5.18;;;;;;;;;;5016016;28;20659;-87
2023/05/02 02:00:16;;;;;;;5.82;5.07;;;;;;;;;;5016320;28;20191;-85
2023/05/02 02:02:45;;;;;;;5.00;4.47;;;;;;;;;;5015800;28;20271;-86
2023/05/02 02:05:13;;;;;;;6.55;6.05;;;;;;;;;;5015921;28;20226;-86
2023/05/02 02:07:41;;;;;;;5.50;5.00;;;;;;;;;;5015875;28;20333;-87
2023/05/02 02:10:10;;;;;;;5.45;4.95;;;;;;;;;;5015886;28;20291;-87
2023/05/02 02:12:42;;;;;;;6.38;5.78;;;;;;;;;;5015832;28;20738;-86
2023/05/02 02:15:18;;;;;;;6.07;5.55;;;;;;;;;;5015446;28;20229;-85
2023/05/02 02:17:54;;;;;;;4.93;4.50;;;;;;;;;;5015385;28;20277;-86
2023/05/02 02:20:23;;;;;;;7.00;5.28;;;;;;;;;;5015590;28;20194;-87
2023/05/02 02:22:50;;;;;;;5.00;4.60;;;;;;;;;;5015336;28;20302;-87
2023/05/02 02:25:18;;;;;;;9.75;6.45;;;;;;;;;;5015076;28;20314;-86
2023/05/02 02:27:47;;;;;;;7.03;6.35;;;;;;;;;;5015669;28;20290;-86
2023/05/02 02:30:16;;;;;;;5.95;5.40;;;;;;;;;;5015556;28;20678;-86
2023/05/02 02:32:44;;;;;;;6.20;5.60;;;;;;;;;;5016036;28;20592;-87
2023/05/02 02:35:11;;;;;;;5.15;4.75;;;;;;;;;;5015339;28;20305;-87
2023/05/02 02:37:45;;;;;;;7.18;6.10;;;;;;;;;;5015404;28;20209;-86
2023/05/02 02:40:18;;;;;;;5.50;4.95;;;;;;;;;;5015378;28;20235;-87
2023/05/02 02:42:52;;;;;;;6.95;5.82;;;;;;;;;;5015230;28;20850;-86
2023/05/02 02:45:30;;;;;;;5.15;4.65;;;;;;;;;;5014950;28;20230;-86
2023/05/02 02:48:09;;;;;;;5.07;4.68;;;;;;;;;;5014918;28;20187;-87
2023/05/02 02:50:42;;;;;;;5.80;5.15;;;;;;;;;;5015108;28;20187;-87
2023/05/02 02:53:17;;;;;;;4.97;4.57;;;;;;;;;;5015037;28;20595;-86
2023/05/02 02:55:47;;;;;;;4.88;4.47;;;;;;;;;;5014676;28;20660;-86
2023/05/02 02:58:22;;;;;;;4.80;4.40;;;;;;;;;;5014716;28;20345;-86
2023/05/02 03:00:52;;;;;;;6.65;5.63;;;;;;;;;;5014635;28;20186;-87
2023/05/02 03:03:23;;;;;;;4.65;4.30;;;;;;;;;;5014628;28;20584;-87
2023/05/02 03:05:51;;;;;;;5.88;5.28;;;;;;;;;;5014643;28;20333;-86
2023/05/02 03:08:19;;;;;;;5.45;5.05;;;;;;;;;;5014669;28;20214;-87
2023/05/02 03:10:46;;;;;;;6.38;5.57;;;;;;;;;;5014457;28;20202;-86
2023/05/02 03:13:14;;;;;;;7.78;6.70;;;;;;;;;;5014679;28;20269;-86
2023/05/02 03:16:26;;;;;;;5.97;5.43;;;;;;;;;;5014712;28;20306;-86
2023/05/02 03:18:53;;;;;;;6.35;5.50;;;;;;;;;;5014545;28;20194;-86
2023/05/02 03:21:21;;;;;;;6.38;5.78;;;;;;;;;;5014457;28;20647;-87
2023/05/02 03:23:48;;;;;;;6.50;5.97;;;;;;;;;;5013517;28;20191;-86
2023/05/02 03:26:16;;;;;;;6.35;5.82;;;;;;;;;;5014629;28;20766;-87
2023/05/02 03:28:45;;;;;;;5.93;5.43;;;;;;;;;;5014071;28;20281;-86
2023/05/02 03:31:14;;;;;;;6.65;5.95;;;;;;;;;;5014206;28;20619;-87
2023/05/02 03:33:41;;;;;;;7.45;6.65;;;;;;;;;;5014240;28;20222;-87
2023/05/02 03:36:09;;;;;;;6.75;6.03;;;;;;;;;;5013882;28;20581;-86
2023/05/02 03:38:37;;;;;;;6.63;6.03;;;;;;;;;;5014196;28;20209;-86
2023/05/02 03:41:05;;;;;;;9.18;6.95;;;;;;;;;;5014198;28;20198;-86
2023/05/02 03:43:33;;;;;;;7.57;6.57;;;;;;;;;;5014119;28;20285;-86
2023/05/02 03:46:06;;;;;;;8.23;7.10;;;;;;;;;;5013960;28;20592;-87
2023/05/02 03:48:35;;;;;;;7.65;6.15;;;;;;;;;;5014040;28;20626;-86
2023/05/02 03:51:04;;;;;;;7.78;7.07;;;;;;;;;;5014061;28;20232;-86
2023/05/02 03:53:32;;;;;;;7.38;6.78;;;;;;;;;;5013888;28;20290;-86
2023/05/02 03:55:59;;;;;;;9.65;8.68;;;;;;;;;;5013909;28;20569;-86
2023/05/02 03:58:27;;;;;;;10.43;9.43;;;;;;;;;;5013356;28;20221;-86
2023/05/02 04:00:55;;;;;;;12.25;8.70;;;;;;;;;;5013544;28;20213;-86
2023/05/02 04:03:24;;;;;;;8.52;7.63;;;;;;;;;;5014059;28;20207;-86
2023/05/02 04:05:53;;;;;;;9.70;8.73;;;;;;;;;;5013684;28;20227;-87
2023/05/02 04:08:20;;;;;;;10.82;9.70;;;;;;;;;;5013794;28;20568;-87
2023/05/02 04:10:48;;;;;;;8.93;8.02;;;;;;;;;;5013326;28;20298;-87
2023/05/02 04:13:16;;;;;;;10.32;9.25;;;;;;;;;;5013173;28;20286;-87
2023/05/02 04:15:46;;;;;;;10.23;9.23;;;;;;;;;;5013393;28;20298;-86
2023/05/02 04:18:13;;;;;;;8.75;7.93;;;;;;;;;;5013569;28;20206;-86
2023/05/02 04:20:44;;;;;;;11.15;10.05;;;;;;;;;;5013214;28;20261;-86
2023/05/02 04:23:13;;;;;;;11.27;9.75;;;;;;;;;;5013237;28;20198;-86
2023/05/02 04:25:40;;;;;;;11.45;10.25;;;;;;;;;;5013257;28;20226;-86
2023/05/02 04:28:08;;;;;;;10.40;9.43;;;;;;;;;;5013391;28;20309;-86
2023/05/02 04:30:35;;;;;;;9.63;8.63;;;;;;;;;;5013096;28;20237;-87
2023/05/02 04:33:03;;;;;;;12.60;11.40;;;;;;;;;;5013136;28;20222;-87
2023/05/02 04:35:30;;;;;;;13.77;11.13;;;;;;;;;;5011995;28;20269;-87
2023/05/02 04:37:58;;;;;;;11.88;10.77;;;;;;;;;;5013145;28;20286;-86
2023/05/02 04:40:27;;;;;;;13.30;11.82;;;;;;;;;;5013421;28;20199;-86
2023/05/02 04:42:54;;;;;;;9.88;8.98;;;;;;;;;;5013398;28;20254;-86
2023/05/02 04:45:22;;;;;;;9.60;8.80;;;;;;;;;;5015270;28;20680;-86
2023/05/02 04:47:49;;;;;;;8.95;8.13;;;;;;;;;;5015506;28;20310;-86
2023/05/02 04:50:17;;;;;;;12.35;11.18;;;;;;;;;;5015945;28;20237;-86
2023/05/02 04:52:44;;;;;;;13.55;11.68;;;;;;;;;;5015174;28;20207;-85
2023/05/02 04:55:12;;;;;;;15.88;12.40;;;;;;;;;;5019880;28;20250;-85
2023/05/02 04:57:41;;;;;;;14.63;13.07;;;;;;;;;;5015996;28;20217;-85
2023/05/02 05:00:10;;;;;;;15.63;14.10;;;;;;;;;;5016128;28;20230;-85
2023/05/02 05:02:37;;;;;;;14.57;13.07;;;;;;;;;;5015265;28;20230;-86
2023/05/02 05:05:05;;;;;;;13.45;12.05;;;;;;;;;;5017006;28;20313;-85
2023/05/02 05:07:33;;;;;;;12.73;11.52;;;;;;;;;;5015732;28;20293;-85
2023/05/02 05:10:00;;;;;;;13.27;11.95;;;;;;;;;;5016406;28;20238;-86
2023/05/02 05:12:28;;;;;;;12.02;10.93;;;;;;;;;;5015072;28;20203;-85
2023/05/02 05:14:57;;;;;;;14.60;12.50;;;;;;;;;;5013769;28;20512;-85
2023/05/02 05:17:24;;;;;;;13.88;12.40;;;;;;;;;;5014138;28;20206;-86
2023/05/02 05:19:52;;;;;;;15.35;13.82;;;;;;;;;;5014595;28;20247;-86
2023/05/02 05:22:19;;;;;;;13.57;12.13;;;;;;;;;;5016140;28;20242;-85
2023/05/02 05:24:53;;;;;;;12.30;11.10;;;;;;;;;;5015641;28;20230;-85
2023/05/02 05:27:20;;;;;;;11.63;10.43;;;;;;;;;;5015460;28;20222;-85
2023/05/02 05:29:48;;;;;;;14.82;13.25;;;;;;;;;;5014141;28;20203;-85
2023/05/02 05:32:17;;;;;;;15.30;12.93;;;;;;;;;;5013940;28;20199;-85
2023/05/02 05:34:44;;;;;;;13.80;12.35;;;;;;;;;;5014480;28;20225;-86
2023/05/02 05:37:12;;;;;;;15.30;12.38;;;;;;;;;;5015055;28;20205;-85
2023/05/02 05:39:39;;;;;;;15.43;11.68;;;;;;;;;;5014929;28;20226;-86
2023/05/02 05:42:08;;;;;;;12.48;9.77;;;;;;;;;;5013047;28;20306;-87
2023/05/02 05:44:36;;;;;;;15.23;11.60;;;;;;;;;;5012818;28;20230;-86
2023/05/02 05:47:03;;;;;;;12.50;10.45;;;;;;;;;;5015244;28;20322;-85
2023/05/02 05:49:35;;;;;;;12.70;10.75;;;;;;;;;;5016438;28;20286;-87
2023/05/02 05:52:03;;;;;;;9.85;8.80;;;;;;;;;;5016303;28;20213;-86
2023/05/02 05:54:30;;;;;;;12.10;10.65;;;;;;;;;;5016215;28;20238;-86
2023/05/02 05:56:58;;;;;;;12.13;10.45;;;;;;;;;;5015994;28;20230;-86
2023/05/02 05:59:26;;;;;;;11.25;9.95;;;;;;;;;;5015709;28;20199;-87
2023/05/02 06:01:54;;;;;;;12.95;10.63;;;;;;;;;;5016097;28;20205;-87
2023/05/02 06:04:21;;;;;;;15.75;12.23;;;;;;;;;;5015468;28;20200;-87
2023/05/02 06:06:52;;;;;;;10.68;9.57;;;;;;;;;;5016187;28;20258;-86
2023/05/02 06:09:19;;;;;;;11.55;10.35;;;;;;;;;;5015861;28;20222;-86
2023/05/02 06:11:47;;;;;;;11.82;10.55;;;;;;;;;;5015643;28;20371;-87
2023/05/02 06:14:15;;;;;;;11.85;10.63;;;;;;;;;;5015431;28;20565;-86
2023/05/02 06:16:42;;;;;;;11.60;9.85;;;;;;;;;;5015827;28;20664;-87
2023/05/02 06:19:10;;;;;;;8.57;7.13;;;;;;;;;;5015865;28;20627;-86
2023/05/02 06:21:37;;;;;;;10.80;9.57;;;;;;;;;;5015811;28;20237;-87
2023/05/02 06:24:07;;;;;;;11.75;10.10;;;;;;;;;;5015823;28;20234;-86
2023/05/02 06:26:34;;;;;;;10.70;9.23;;;;;;;;;;5015210;28;20314;-86
2023/05/02 06:29:02;;;;;;;9.15;8.20;;;;;;;;;;5015535;28;20719;-87
2023/05/02 06:31:30;;;;;;;9.38;7.72;;;;;;;;;;5015336;28;20233;-86
2023/05/02 06:33:57;;;;;;;9.45;6.88;;;;;;;;;;5015669;28;20290;-87
2023/05/02 06:36:26;;;;;;;6.30;5.60;;;;;;;;;;5017768;28;20234;-87
2023/05/02 06:38:53;;;;;;;6.80;6.15;;;;;;;;;;5015312;28;20409;-87
2023/05/02 06:41:22;;;;;;;5.75;5.25;;;;;;;;;;5015394;28;20289;-86
2023/05/02 06:43:50;;;;;;;6.28;5.68;;;;;;;;;;5015928;28;20645;-86
2023/05/02 06:46:19;;;;;;;7.75;6.95;;;;;;;;;;5015395;28;20322;-86
2023/05/02 06:48:47;;;;;;;7.90;6.63;;;;;;;;;;5015456;28;20290;-87
2023/05/02 06:51:15;;;;;;;12.32;8.88;;;;;;;;;;5015539;28;20286;-86
2023/05/02 06:53:42;;;;;;;8.63;7.60;;;;;;;;;;5013661;28;20226;-87
2023/05/02 06:56:10;;;;;;;10.50;8.98;;;;;;;;;;5014983;28;20253;-86
2023/05/02 06:58:39;;;;;;;10.95;9.25;;;;;;;;;;5021953;28;20658;-86
2023/05/02 07:01:06;;;;;;;10.40;8.35;;;;;;;;;;5015457;28;20683;-88
2023/05/02 07:03:34;;;;;;;10.40;8.70;;;;;;;;;;5015452;28;20282;-87
2023/05/02 07:06:03;;;;;;;10.73;8.68;;;;;;;;;;5014784;28;20223;-86
2023/05/02 07:08:30;;;;;;;10.00;7.90;;;;;;;;;;5014504;28;20723;-87
2023/05/02 07:10:58;;;;;;;8.68;7.78;;;;;;;;;;5014905;28;20203;-87
2023/05/02 07:13:25;;;;;;;6.97;6.30;;;;;;;;;;5015170;28;20306;-86
2023/05/02 07:15:55;;;;;;;7.75;5.93;;;;;;;;;;5015470;28;20301;-87
2023/05/02 07:18:22;;;;;;;5.10;4.38;;;;;;;;;;5014586;28;20203;-86
2023/05/02 07:20:50;;;;;;;5.95;4.93;;;;;;;;;;5014862;28;20298;-86
2023/05/02 07:23:19;;;;;;;5.72;5.18;;;;;;;;;;5014891;28;20290;-87
2023/05/02 07:25:47;;;;;;;6.35;5.18;;;;;;;;;;5014940;28;20273;-86
2023/05/02 07:28:15;;;;;;;6.82;6.05;;;;;;;;;;5014074;28;20727;-87
2023/05/02 07:30:42;;;;;;;5.05;4.50;;;;;;;;;;5014810;28;20207;-88
2023/05/02 07:33:11;;;;;;;4.18;3.78;;;;;;;;;;5014947;28;20290;-87
2023/05/02 07:35:38;;;;;;;4.45;4.05;;;;;;;;;;5014337;28;20254;-86
2023/05/02 07:38:06;;;;;;;5.78;4.22;;;;;;;;;;5013881;28;20288;-87
2023/05/02 07:40:33;;;;;;;7.63;5.03;;;;;;;;;;5013095;28;20234;-87
2023/05/02 07:43:02;;;;;;;5.72;5.22;;;;;;;;;;5014026;28;20641;-87
2023/05/02 07:45:29;;;;;;;4.32;3.92;;;;;;;;;;5014460;28;20227;-86
2023/05/02 07:47:57;;;;;;;5.15;4.65;;;;;;;;;;5014213;28;20237;-87
2023/05/02 07:50:26;;;;;;;4.63;4.22;;;;;;;;;;5013710;28;20286;-87
2023/05/02 07:52:54;;;;;;;4.60;4.20;;;;;;;;;;5014440;28;20215;-87
2023/05/02 07:55:22;;;;;;;4.28;3.88;;;;;;;;;;5013692;28;20229;-87
2023/05/02 07:57:49;;;;;;;4.78;4.22;;;;;;;;;;5013650;28;20249;-87
2023/05/02 08:00:18;;;;;;;5.07;4.20;;;;;;;;;;5014277;28;20210;-86
2023/05/02 08:02:46;;;;;;;5.15;4.35;;;;;;;;;;5013687;28;20286;-86
2023/05/02 08:05:13;;;;;;;5.75;4.57;;;;;;;;;;5013552;28;20230;-87
2023/05/02 08:07:42;;;;;;;5.47;4.97;;;;;;;;;;5013781;28;20607;-87
2023/05/02 08:10:11;;;;;;;7.47;5.72;;;;;;;;;;5013620;28;20202;-87
2023/05/02 08:12:40;;;;;;;5.30;4.75;;;;;;;;;;5013553;28;20222;-85
2023/05/02 08:15:09;;;;;;;5.85;5.30;;;;;;;;;;5013351;28;20222;-86
2023/05/02 08:17:37;;;;;;;4.95;4.55;;;;;;;;;;5013888;28;20277;-86
2023/05/02 08:20:05;;;;;;;4.97;4.57;;;;;;;;;;5013142;28;20242;-86
2023/05/02 08:22:32;;;;;;;4.00;3.47;;;;;;;;;;5013542;28;20676;-86
2023/05/02 08:25:01;;;;;;;4.53;3.85;;;;;;;;;;4993746;28;20339;-87
2023/05/02 08:27:29;;;;;;;3.95;3.35;;;;;;;;;;4993620;28;20251;-87
2023/05/02 08:29:56;;;;;;;3.88;3.47;;;;;;;;;;4993350;28;20288;-87
2023/05/02 08:32:24;;;;;;;3.53;3.15;;;;;;;;;;4993913;28;20203;-86
2023/05/02 08:34:54;;;;;;;4.07;3.60;;;;;;;;;;4993240;28;20243;-86
2023/05/02 08:37:21;;;;;;;3.05;2.85;;;;;;;;;;4994197;28;20196;-87
2023/05/02 08:39:49;;;;;;;4.43;3.50;;;;;;;;;;4993558;28;20656;-87
2023/05/02 08:42:19;;;;;;;4.05;3.08;;;;;;;;;;4993572;28;20667;-87
2023/05/02 08:44:48;;;;;;;2.88;2.67;;;;;;;;;;4993268;28;20220;-86
2023/05/02 08:47:16;;;;;;;3.15;2.85;;;;;;;;;;5003111;28;20636;-86
2023/05/02 08:49:44;;;;;;;3.17;2.95;;;;;;;;;;5012978;28;20293;-87
2023/05/02 08:52:13;;;;;;;2.10;2.00;;;;;;;;;;5013073;28;20206;-87
2023/05/02 08:54:41;;;;;;;1.77;1.67;;;;;;;;;;5012902;28;20648;-87
2023/05/02 08:57:09;;;;;;;1.58;1.42;;;;;;;;;;5012726;28;20198;-87
2023/05/02 08:59:37;;;;;;;1.50;1.40;;;;;;;;;;5012854;28;20211;-87
2023/05/02 09:02:12;;;;;;;1.50;1.40;;;;;;;;;;5012882;28;20262;-86
2023/05/02 09:04:42;;;;;;;1.55;1.35;;;;;;;;;;5012642;28;20691;-86
2023/05/02 09:07:10;;;;;;;2.45;1.27;;;;;;;;;;5012904;28;20195;-87
2023/05/02 09:09:38;;;;;;;1.50;1.40;;;;;;;;;;5012778;28;20207;-87
2023/05/02 09:12:05;;;;;;;2.58;1.80;;;;;;;;;;5013212;28;20238;-86
2023/05/02 09:14:33;;;;;;;1.50;1.40;;;;;;;;;;5012432;28;20257;-86
2023/05/02 09:17:02;;;;;;;1.52;1.40;;;;;;;;;;5012505;28;20728;-87
2023/05/02 09:19:29;;;;;;;1.52;1.42;;;;;;;;;;5012396;28;20233;-87
2023/05/02 09:22:01;;;;;;;1.60;1.50;;;;;;;;;;5015228;28;20285;-87
2023/05/02 09:24:29;;;;;;;1.50;1.40;;;;;;;;;;5016239;28;20251;-86
2023/05/02 09:27:02;;;;;;;1.70;1.60;;;;;;;;;;5016667;28;20199;-86
2023/05/02 09:29:34;;;;;;;1.55;1.45;;;;;;;;;;5016562;28;20222;-87
2023/05/02 09:32:04;;;;;;;1.95;1.85;;;;;;;;;;5016288;28;20258;-86
2023/05/02 09:34:32;;;;;;;1.75;1.30;;;;;;;;;;5016569;28;20229;-87
2023/05/02 09:37:00;;;;;;;1.45;1.35;;;;;;;;;;5016391;28;20210;-87
2023/05/02 09:39:29;;;;;;;1.48;1.38;;;;;;;;;;5016244;28;20202;-87
2023/05/02 09:41:57;;;;;;;4.60;2.20;;;;;;;;;;5016088;28;20623;-86
2023/05/02 09:44:26;;;;;;;2.30;1.83;;;;;;;;;;5016057;28;20203;-87
2023/05/02 09:46:56;;;;;;;1.58;1.40;;;;;;;;;;5016088;28;20282;-87
2023/05/02 09:49:40;;;;;;;1.85;1.73;;;;;;;;;;5015960;28;20269;-85
2023/05/02 09:52:12;;;;;;;1.73;1.63;;;;;;;;;;5016419;28;20719;-88
2023/05/02 09:54:39;;;;;;;2.33;2.13;;;;;;;;;;5016007;28;20665;-87
2023/05/02 09:57:07;;;;;;;2.03;1.42;;;;;;;;;;5016573;28;20196;-88
2023/05/02 09:59:35;;;;;;;3.17;1.95;;;;;;;;;;5016002;28;20215;-86
2023/05/02 10:02:06;;;;;;;7.75;6.38;;;;;;;;;;5015404;28;20203;-86
2023/05/02 10:04:35;;;;;;;3.97;3.08;;;;;;;;;;5015705;28;20613;-86
2023/05/02 10:07:05;;;;;;;1.98;1.88;;;;;;;;;;5015756;28;20226;-87
2023/05/02 10:09:34;;;;;;;1.60;1.50;;;;;;;;;;5016017;28;20219;-86
2023/05/02 10:12:03;;;;;;;1.73;1.63;;;;;;;;;;5016277;28;20549;-86
2023/05/02 10:14:34;;;;;;;1.77;1.65;;;;;;;;;;5015752;28;20226;-85
2023/05/02 10:17:08;;;;;;;1.90;1.80;;;;;;;;;;5016501;28;20261;-86
2023/05/02 10:19:45;;;;;;;2.10;1.85;;;;;;;;;;5018112;28;20203;-86
2023/05/02 10:22:13;;;;;;;2.15;2.03;;;;;;;;;;5016467;28;20239;-87
2023/05/02 10:24:41;;;;;;;1.40;1.30;;;;;;;;;;5019241;28;20285;-85
2023/05/02 10:27:09;;;;;;;1.63;1.50;;;;;;;;;;5018740;28;20294;-86
2023/05/02 10:29:37;;;;;;;2.03;1.25;;;;;;;;;;5018169;28;20222;-85
2023/05/02 10:32:05;;;;;;;1.88;1.77;;;;;;;;;;5017074;28;20219;-86
2023/05/02 10:34:33;;;;;;;1.70;1.60;;;;;;;;;;5019166;28;20298;-86
2023/05/02 10:37:02;;;;;;;1.90;1.80;;;;;;;;;;5016629;28;20241;-86
2023/05/02 10:39:30;;;;;;;1.75;1.65;;;;;;;;;;5017007;28;20261;-86
2023/05/02 10:42:02;;;;;;;1.50;1.40;;;;;;;;;;5019017;28;20234;-87
2023/05/02 10:44:39;;;;;;;1.38;1.27;;;;;;;;;;5020059;28;20302;-85
2023/05/02 10:47:20;;;;;;;1.90;1.80;;;;;;;;;;5018273;28;20210;-86
2023/05/02 10:49:52;;;;;;;1.90;1.80;;;;;;;;;;5019237;28;20233;-86
2023/05/02 10:52:34;;;;;;;2.13;1.95;;;;;;;;;;5020188;28;20207;-85
2023/05/02 10:55:19;;;;;;;2.10;2.00;;;;;;;;;;5019302;28;20305;-85
2023/05/02 10:58:24;;;;;;;3.17;1.90;;;;;;;;;;5016784;28;20214;-87
2023/05/02 11:00:51;;;;;;;2.70;2.40;;;;;;;;;;5018358;28;20214;-86
2023/05/02 11:03:56;;;;;;;2.83;2.33;;;;;;;;;;5018434;28;20222;-87
2023/05/02 11:06:24;;;;;;;2.95;2.28;;;;;;;;;;5015685;28;20230;-86
2023/05/02 11:08:53;;;;;;;2.10;2.00;;;;;;;;;;5017572;28;20237;-86
2023/05/02 11:11:45;;;;;;;4.82;2.60;;;;;;;;;;5017845;28;20692;-86
2023/05/02 11:14:47;;;;;;;2.92;2.20;;;;;;;;;;5013669;28;20309;-85
2023/05/02 11:17:15;;;;;;;3.55;2.92;;;;;;;;;;5017187;28;20206;-86
2023/05/02 11:20:28;;;;;;;5.32;3.03;;;;;;;;;;5015439;28;20607;-86
2023/05/02 11:22:58;;;;;;;3.92;3.17;;;;;;;;;;4980914;28;20290;-86
2023/05/02 11:25:36;;;;;;;5.03;2.67;;;;;;;;;;5017052;28;20258;-85
2023/05/02 11:28:34;;;;;;;4.20;3.13;;;;;;;;;;5017919;28;20206;-86
2023/05/02 11:31:04;;;;;;;12.05;4.50;;;;;;;;;;5017472;28;20285;-86
2023/05/02 11:33:32;;;;;;;7.63;3.92;;;;;;;;;;5015966;28;20306;-85
2023/05/02 11:35:59;;;;;;;3.88;3.45;;;;;;;;;;5018842;28;20302;-86
2023/05/02 11:38:35;;;;;;;4.28;3.55;;;;;;;;;;5020122;28;20218;-86
2023/05/02 11:41:04;;;;;;;6.55;3.45;;;;;;;;;;5019429;28;20183;-85
2023/05/02 11:43:32;;;;;;;4.35;3.25;;;;;;;;;;5018552;28;20203;-86
2023/05/02 11:46:01;;;;;;;3.97;3.60;;;;;;;;;;5017996;28;20333;-86
2023/05/02 11:48:31;;;;;;;8.80;3.33;;;;;;;;;;5014837;28;20668;-88
2023/05/02 11:51:05;;;;;;;4.50;3.72;;;;;;;;;;5013930;28;20207;-87
2023/05/02 11:53:33;;;;;;;5.18;3.55;;;;;;;;;;5014288;28;20223;-86
2023/05/02 11:56:04;;;;;;;6.93;3.88;;;;;;;;;;5014556;28;20742;-87
2023/05/02 11:58:33;;;;;;;7.35;3.58;;;;;;;;;;5015244;28;20211;-87
2023/05/02 12:01:13;;;;;;;7.90;4.63;;;;;;;;;;5014199;28;20207;-88
2023/05/02 12:03:40;;;;;;;6.05;3.83;;;;;;;;;;5014761;28;20606;-87
2023/05/02 12:06:13;;;;;;;8.23;4.40;;;;;;;;;;5014023;28;20620;-88
2023/05/02 12:08:42;;;;;;;7.13;3.80;;;;;;;;;;5014164;28;20210;-88
2023/05/02 12:11:13;;;;;;;4.63;3.83;;;;;;;;;;5013747;28;20322;-88
2023/05/02 12:13:46;;;;;;;4.72;4.22;;;;;;;;;;5013929;28;20270;-88
2023/05/02 12:16:14;;;;;;;7.88;4.32;;;;;;;;;;5013514;28;20234;-88
2023/05/02 12:18:42;;;;;;;6.88;4.07;;;;;;;;;;5013687;28;20297;-87
2023/05/02 12:21:09;;;;;;;5.10;4.38;;;;;;;;;;5013740;28;20666;-88
2023/05/02 12:23:37;;;;;;;11.32;5.03;;;;;;;;;;5013910;28;20230;-87
2023/05/02 12:26:20;;;;;;;9.00;4.32;;;;;;;;;;5013593;28;20634;-88
2023/05/02 12:28:51;;;;;;;6.20;4.65;;;;;;;;;;5013444;28;20579;-87
2023/05/02 12:31:18;;;;;;;5.70;4.43;;;;;;;;;;5013398;28;20716;-87
2023/05/02 12:33:49;;;;;;;6.47;4.63;;;;;;;;;;5013540;28;20253;-86
2023/05/02 12:36:17;;;;;;;5.95;4.40;;;;;;;;;;5013975;28;20696;-86
2023/05/02 12:38:51;;;;;;;7.03;4.75;;;;;;;;;;5014408;28;20214;-87
2023/05/02 12:41:28;;;;;;;6.88;5.28;;;;;;;;;;5013840;28;20214;-86
2023/05/02 12:43:57;;;;;;;9.15;5.05;;;;;;;;;;5014319;28;20203;-87
2023/05/02 12:46:25;;;;;;;4.72;4.20;;;;;;;;;;5013443;28;20219;-88
2023/05/02 12:49:04;;;;;;;6.35;4.50;;;;;;;;;;5013575;28;20719;-90
2023/05/02 12:51:31;;;;;;;8.55;5.30;;;;;;;;;;5012993;28;20233;-88
2023/05/02 12:53:59;;;;;;;8.65;4.93;;;;;;;;;;5013744;28;20614;-87
2023/05/02 12:56:31;;;;;;;7.93;4.53;;;;;;;;;;5012408;28;20214;-88
2023/05/02 12:59:00;;;;;;;8.05;5.70;;;;;;;;;;5014151;28;20579;-87
2023/05/02 13:01:30;;;;;;;7.13;5.03;;;;;;;;;;5012774;28;20237;-87
2023/05/02 13:03:59;;;;;;;6.82;5.20;;;;;;;;;;5017258;28;20303;-88
2023/05/02 13:06:36;;;;;;;8.18;4.95;;;;;;;;;;5014123;28;20223;-88
2023/05/02 13:09:04;;;;;;;10.73;5.47;;;;;;;;;;5013371;28;20230;-88
2023/05/02 13:11:39;;;;;;;7.68;6.47;;;;;;;;;;5013019;28;20250;-87
2023/05/02 13:14:10;;;;;;;7.72;5.38;;;;;;;;;;5012835;28;20209;-88
2023/05/02 13:16:37;;;;;;;12.68;9.95;;;;;;;;;;5013024;28;20286;-88
2023/05/02 13:19:08;;;;;;;9.52;7.20;;;;;;;;;;5012841;28;20286;-88
2023/05/02 13:21:35;;;;;;;6.95;5.45;;;;;;;;;;5012711;28;20282;-89
2023/05/02 13:24:03;;;;;;;7.80;5.38;;;;;;;;;;5012551;28;20290;-89
2023/05/02 13:26:31;;;;;;;10.15;5.03;;;;;;;;;;5012753;28;20310;-89
2023/05/02 13:29:00;;;;;;;7.53;4.88;;;;;;;;;;5012557;28;20199;-88
2023/05/02 13:31:27;;;;;;;7.95;4.68;;;;;;;;;;5012112;28;20222;-89
2023/05/02 13:33:55;;;;;;;5.45;4.95;;;;;;;;;;5013018;28;20289;-88
2023/05/02 13:36:23;;;;;;;12.45;5.72;;;;;;;;;;5012643;28;20315;-88
2023/05/02 13:38:51;;;;;;;10.00;6.68;;;;;;;;;;5012690;28;20218;-89
2023/05/02 13:41:19;;;;;;;9.10;4.95;;;;;;;;;;5012732;28;20266;-88
2023/05/02 13:43:46;;;;;;;7.13;4.00;;;;;;;;;;5012325;28;20195;-88
2023/05/02 13:46:15;;;;;;;11.98;5.22;;;;;;;;;;5012506;28;20211;-89
2023/05/02 13:48:42;;;;;;;7.85;4.32;;;;;;;;;;5012365;28;20258;-88
2023/05/02 13:51:13;;;;;;;5.32;4.25;;;;;;;;;;5011818;28;20310;-88
2023/05/02 13:53:40;;;;;;;10.40;4.47;;;;;;;;;;5012258;28;20288;-89
2023/05/02 13:56:08;;;;;;;5.70;3.85;;;;;;;;;;5012327;28;20745;-89
2023/05/02 13:58:36;;;;;;;5.38;3.80;;;;;;;;;;5012312;28;20242;-88
2023/05/02 14:01:03;;;;;;;4.68;3.72;;;;;;;;;;5012688;28;20679;-88
2023/05/02 14:03:35;;;;;;;4.70;3.70;;;;;;;;;;5012477;28;20234;-88
2023/05/02 14:06:02;;;;;;;6.35;3.60;;;;;;;;;;5012912;28;20261;-88
2023/05/02 14:08:33;;;;;;;12.80;8.40;;;;;;;;;;5015897;28;20249;-87
2023/05/02 14:11:00;;;;;;;5.18;4.43;;;;;;;;;;5015961;28;20289;-88
2023/05/02 14:13:28;;;;;;;5.57;4.03;;;;;;;;;;5016053;28;20211;-88
2023/05/02 14:15:57;;;;;;;6.93;3.63;;;;;;;;;;5015475;28;20222;-88
2023/05/02 14:18:25;;;;;;;7.05;4.55;;;;;;;;;;5015809;28;20203;-88
2023/05/02 14:20:54;;;;;;;7.35;4.47;;;;;;;;;;5015220;28;20226;-88
2023/05/02 14:23:21;;;;;;;5.90;3.30;;;;;;;;;;5016362;28;20644;-88
2023/05/02 14:25:49;;;;;;;3.60;3.30;;;;;;;;;;5015658;28;20310;-88
2023/05/02 14:28:17;;;;;;;4.00;3.20;;;;;;;;;;5015559;28;20198;-89
2023/05/02 14:30:44;;;;;;;3.35;2.95;;;;;;;;;;5015028;28;20233;-88
2023/05/02 14:33:12;;;;;;;3.80;3.45;;;;;;;;;;5015431;28;20202;-87
2023/05/02 14:35:42;;;;;;;5.90;3.47;;;;;;;;;;5015340;28;20277;-88
2023/05/02 14:38:13;;;;;;;4.45;3.10;;;;;;;;;;5015165;28;20210;-88
2023/05/02 14:40:40;;;;;;;5.90;3.80;;;;;;;;;;5015184;28;20226;-87
2023/05/02 14:43:08;;;;;;;6.10;3.75;;;;;;;;;;5014293;28;20227;-87
2023/05/02 14:45:35;;;;;;;4.85;3.40;;;;;;;;;;5015029;28;20224;-88
2023/05/02 14:48:03;;;;;;;5.93;3.40;;;;;;;;;;5015048;28;20286;-88
2023/05/02 14:50:30;;;;;;;3.85;2.90;;;;;;;;;;5015266;28;20206;-88
2023/05/02 14:52:58;;;;;;;6.78;3.50;;;;;;;;;;5015208;28;20226;-88